createdAt,value
2023-01-20T00:01:52.839Z,30.94
2023-01-20T00:04:20.406Z,31.36
2023-01-20T00:06:48.124Z,31.08
2023-01-20T00:09:17.859Z,31.08
2023-01-20T00:11:45.817Z,30.76
2023-01-20T00:14:13.585Z,30.40
2023-01-20T00:16:41.161Z,31.09
2023-01-20T00:19:12.499Z,30.54
2023-01-20T00:21:40.010Z,30.79
2023-01-20T00:24:07.838Z,30.76
2023-01-20T00:26:35.339Z,30.42
2023-01-20T00:29:02.866Z,30.68
2023-01-20T00:31:32.149Z,30.52
2023-01-20T00:34:01.647Z,31.08
2023-01-20T00:36:34.496Z,30.40
2023-01-20T00:39:05.647Z,30.43
2023-01-20T00:41:33.813Z,30.63
2023-01-20T00:44:01.354Z,30.44
2023-01-20T00:46:29.070Z,30.13
2023-01-20T00:48:56.571Z,30.58
2023-01-20T00:51:24.243Z,30.16
2023-01-20T00:53:51.839Z,30.09
2023-01-20T00:56:19.301Z,30.34
2023-01-20T00:58:46.873Z,30.35
2023-01-20T01:01:14.661Z,30.24
2023-01-20T01:03:42.473Z,30.54
2023-01-20T01:06:18.082Z,30.91
2023-01-20T01:08:46.156Z,30.19
2023-01-20T01:11:14.448Z,29.61
2023-01-20T01:13:42.969Z,30.22
2023-01-20T01:16:15.782Z,29.69
2023-01-20T01:18:43.938Z,30.34
2023-01-20T01:21:14.404Z,29.90
2023-01-20T01:23:42.191Z,29.92
2023-01-20T01:26:10.716Z,30.31
2023-01-20T01:28:38.624Z,30.08
2023-01-20T01:31:08.007Z,30.04
2023-01-20T01:33:35.901Z,30.25
2023-01-20T01:36:05.292Z,29.69
2023-01-20T01:38:32.870Z,30.30
2023-01-20T01:41:00.794Z,30.44
2023-01-20T01:43:34.357Z,30.58
2023-01-20T01:46:02.371Z,29.96
2023-01-20T01:48:39.520Z,31.24
2023-01-20T01:51:11.730Z,30.76
2023-01-20T01:53:54.432Z,30.23
2023-01-20T01:56:24.350Z,30.18
2023-01-20T01:58:57.219Z,30.18
2023-01-20T02:01:26.269Z,30.12
2023-01-20T02:04:06.088Z,30.98
2023-01-20T02:06:36.257Z,30.81
2023-01-20T02:09:05.145Z,30.86
2023-01-20T02:11:39.218Z,30.51
2023-01-20T02:14:08.132Z,30.40
2023-01-20T02:16:57.896Z,30.71
2023-01-20T02:19:39.773Z,30.76
2023-01-20T02:22:25.701Z,30.88
2023-01-20T02:25:15.374Z,30.80
2023-01-20T02:27:51.407Z,30.79
2023-01-20T02:30:54.152Z,30.74
2023-01-20T02:34:00.042Z,30.81
2023-01-20T02:36:36.541Z,30.60
2023-01-20T02:39:30.568Z,30.85
2023-01-20T02:42:30.794Z,30.48
2023-01-20T02:45:03.635Z,30.75
2023-01-20T02:47:34.152Z,31.45
2023-01-20T02:50:51.710Z,30.84
2023-01-20T02:53:22.815Z,30.73
2023-01-20T02:55:53.760Z,31.44
2023-01-20T02:58:44.978Z,31.17
2023-01-20T03:01:20.959Z,31.61
2023-01-20T03:03:52.411Z,31.35
2023-01-20T03:06:24.652Z,30.95
2023-01-20T03:08:56.389Z,31.39
2023-01-20T03:11:24.055Z,31.50
2023-01-20T03:14:05.356Z,31.45
2023-01-20T03:16:33.485Z,31.04
2023-01-20T03:19:01.195Z,31.53
2023-01-20T03:21:29.150Z,31.57
2023-01-20T03:24:01.573Z,31.54
2023-01-20T03:26:31.109Z,31.93
2023-01-20T03:28:59.334Z,31.45
2023-01-20T03:32:07.744Z,31.84
2023-01-20T03:34:38.308Z,31.53
2023-01-20T03:37:07.033Z,31.67
2023-01-20T03:39:40.040Z,32.19
2023-01-20T03:42:25.254Z,32.05
2023-01-20T03:45:07.817Z,32.39
2023-01-20T03:47:59.672Z,31.79
2023-01-20T03:50:42.962Z,31.60
2023-01-20T03:53:35.184Z,31.70
2023-01-20T03:56:17.571Z,32.16
2023-01-20T03:58:49.265Z,31.68
2023-01-20T04:01:19.818Z,31.77
2023-01-20T04:03:51.000Z,31.48
2023-01-20T04:06:21.983Z,31.83
2023-01-20T04:08:57.039Z,31.74
2023-01-20T04:11:26.385Z,31.69
2023-01-20T04:13:54.189Z,31.77
2023-01-20T04:16:23.252Z,31.54
2023-01-20T04:18:52.032Z,31.37
2023-01-20T04:21:40.571Z,30.96
2023-01-20T04:24:22.382Z,31.89
2023-01-20T04:26:49.902Z,33.17
2023-01-20T04:29:17.395Z,32.09
2023-01-20T04:31:44.883Z,31.44
2023-01-20T04:34:18.540Z,30.42
2023-01-20T04:36:45.990Z,30.13
2023-01-20T04:39:13.499Z,30.54
2023-01-20T04:41:41.052Z,29.32
2023-01-20T04:44:08.555Z,29.02
2023-01-20T04:46:37.025Z,28.54
2023-01-20T04:49:04.732Z,28.01
2023-01-20T04:51:35.374Z,27.89
2023-01-20T04:54:02.907Z,26.65
2023-01-20T04:56:30.401Z,25.40
2023-01-20T04:58:58.109Z,24.75
2023-01-20T05:01:25.844Z,24.58
2023-01-20T05:03:53.427Z,23.93
2023-01-20T05:06:20.938Z,23.16
2023-01-20T05:08:48.543Z,23.37
2023-01-20T05:11:16.071Z,22.92
2023-01-20T05:13:43.635Z,22.37
2023-01-20T05:16:11.634Z,21.64
2023-01-20T05:18:39.380Z,20.87
2023-01-20T05:21:09.009Z,20.19
2023-01-20T05:23:36.600Z,19.75
2023-01-20T05:26:04.076Z,19.17
2023-01-20T05:28:31.665Z,19.08
2023-01-20T05:30:59.349Z,19.17
2023-01-20T05:33:26.840Z,18.77
2023-01-20T05:35:56.014Z,18.03
2023-01-20T05:38:23.740Z,17.91
2023-01-20T05:40:51.195Z,17.33
2023-01-20T05:43:18.740Z,17.02
2023-01-20T05:45:47.035Z,16.08
2023-01-20T05:48:14.484Z,16.46
2023-01-20T05:51:03.837Z,16.58
2023-01-20T05:53:43.330Z,16.08
2023-01-20T05:56:16.260Z,15.50
2023-01-20T05:58:48.074Z,15.43
2023-01-20T06:01:27.393Z,15.35
2023-01-20T06:03:55.368Z,15.09
2023-01-20T06:06:26.080Z,14.90
2023-01-20T06:08:54.408Z,14.59
2023-01-20T06:11:22.327Z,14.21
2023-01-20T06:13:52.356Z,13.76
2023-01-20T06:16:30.198Z,13.59
2023-01-20T06:19:07.595Z,13.52
2023-01-20T06:21:35.547Z,13.59
2023-01-20T06:24:07.578Z,13.18
2023-01-20T06:26:42.951Z,12.92
2023-01-20T06:29:18.134Z,13.04
2023-01-20T06:31:46.023Z,12.73
2023-01-20T06:34:13.923Z,12.68
2023-01-20T06:36:41.444Z,12.46
2023-01-20T06:39:16.360Z,12.39
2023-01-20T06:41:46.841Z,12.17
2023-01-20T06:44:15.813Z,12.01
2023-01-20T06:46:49.200Z,11.89
2023-01-20T06:49:21.931Z,11.47
2023-01-20T06:51:55.274Z,11.49
2023-01-20T06:54:25.324Z,11.22
2023-01-20T06:56:55.419Z,11.20
2023-01-20T06:59:29.028Z,10.87
2023-01-20T07:02:06.924Z,10.72
2023-01-20T07:04:52.058Z,10.67
2023-01-20T07:07:23.558Z,10.57
2023-01-20T07:09:57.031Z,10.59
2023-01-20T07:12:27.459Z,10.86
2023-01-20T07:15:04.658Z,10.66
2023-01-20T07:17:40.178Z,10.52
2023-01-20T07:20:24.730Z,10.69
2023-01-20T07:22:57.420Z,10.46
2023-01-20T07:25:32.777Z,10.64
2023-01-20T07:28:02.611Z,10.68
2023-01-20T07:30:37.878Z,10.73
2023-01-20T07:33:10.382Z,10.96
2023-01-20T07:35:43.305Z,11.19
2023-01-20T07:38:25.614Z,11.65
2023-01-20T07:41:22.336Z,11.96
2023-01-20T07:43:53.620Z,12.15
2023-01-20T07:46:22.324Z,11.94
2023-01-20T07:48:50.607Z,12.03
2023-01-20T07:51:26.017Z,11.78
2023-01-20T07:53:59.768Z,11.92
2023-01-20T07:56:37.854Z,12.19
2023-01-20T07:59:07.908Z,12.66
2023-01-20T08:01:40.635Z,13.17
2023-01-20T08:04:08.763Z,13.40
2023-01-20T08:06:45.687Z,13.77
2023-01-20T08:09:26.891Z,13.63
2023-01-20T08:12:05.913Z,14.11
2023-01-20T08:14:34.225Z,14.56
2023-01-20T08:17:03.031Z,14.78
2023-01-20T08:19:30.738Z,15.49
2023-01-20T08:22:00.933Z,15.60
2023-01-20T08:24:31.251Z,15.69
2023-01-20T08:27:01.300Z,16.05
2023-01-20T08:29:31.575Z,16.26
2023-01-20T08:32:03.866Z,16.95
2023-01-20T08:34:32.934Z,16.64
2023-01-20T08:37:06.101Z,17.00
2023-01-20T08:39:38.966Z,17.34
2023-01-20T08:42:11.172Z,17.55
2023-01-20T08:44:38.872Z,17.40
2023-01-20T08:47:06.335Z,17.55
2023-01-20T08:49:34.216Z,18.00
2023-01-20T08:52:02.305Z,18.14
2023-01-20T08:54:34.679Z,18.28
2023-01-20T08:57:02.494Z,18.25
2023-01-20T08:59:30.064Z,18.37
2023-01-20T09:01:57.617Z,18.51
2023-01-20T09:04:25.143Z,18.66
2023-01-20T09:06:53.108Z,18.58
2023-01-20T09:09:22.388Z,18.52
2023-01-20T09:11:53.113Z,18.78
2023-01-20T09:14:22.695Z,18.58
2023-01-20T09:16:50.614Z,18.41
2023-01-20T09:19:18.307Z,18.65
2023-01-20T09:21:45.797Z,18.57
2023-01-20T09:24:13.463Z,18.80
2023-01-20T09:26:40.952Z,18.81
2023-01-20T09:29:12.408Z,19.06
2023-01-20T09:31:44.804Z,19.37
2023-01-20T09:34:19.828Z,19.52
2023-01-20T09:36:55.549Z,19.50
2023-01-20T09:39:41.842Z,19.47
2023-01-20T09:42:55.668Z,19.47
2023-01-20T09:45:52.522Z,19.48
2023-01-20T09:49:05.483Z,19.32
2023-01-20T09:52:05.502Z,19.85
2023-01-20T09:54:44.172Z,19.65
2023-01-20T09:57:14.140Z,19.95
2023-01-20T09:59:48.741Z,19.97
2023-01-20T10:02:30.017Z,20.02
2023-01-20T10:05:16.987Z,19.68
2023-01-20T10:08:01.191Z,20.69
2023-01-20T10:10:32.487Z,20.46
2023-01-20T10:13:34.446Z,20.34
2023-01-20T10:16:08.966Z,20.43
2023-01-20T10:18:52.275Z,19.96
2023-01-20T10:21:41.882Z,19.92
2023-01-20T10:24:19.043Z,20.42
2023-01-20T10:26:59.580Z,20.30
2023-01-20T10:29:34.533Z,20.69
2023-01-20T10:32:08.995Z,20.30
2023-01-20T10:34:46.042Z,20.78
2023-01-20T10:37:15.690Z,20.27
2023-01-20T10:39:57.432Z,20.74
2023-01-20T10:42:25.880Z,20.76
2023-01-20T10:44:53.461Z,20.71
2023-01-20T10:47:44.335Z,20.58
2023-01-20T10:50:40.895Z,20.29
2023-01-20T10:53:08.362Z,20.48
2023-01-20T10:55:52.251Z,20.66
2023-01-20T10:58:36.280Z,20.33
2023-01-20T11:01:07.208Z,20.30
2023-01-20T11:03:43.173Z,20.56
2023-01-20T11:06:21.046Z,20.72
2023-01-20T11:08:49.778Z,20.21
2023-01-20T11:11:22.963Z,20.84
2023-01-20T11:13:52.505Z,21.13
2023-01-20T11:16:25.123Z,20.53
2023-01-20T11:18:59.182Z,20.87
2023-01-20T11:21:32.065Z,21.63
2023-01-20T11:24:00.877Z,21.31
2023-01-20T11:26:33.415Z,21.33
2023-01-20T11:29:04.428Z,21.40
2023-01-20T11:31:53.232Z,21.25
2023-01-20T11:34:36.595Z,21.77
2023-01-20T11:37:07.017Z,22.17
2023-01-20T11:39:42.432Z,21.62
2023-01-20T11:42:21.695Z,21.83
2023-01-20T11:45:19.854Z,21.59
2023-01-20T11:48:02.123Z,22.05
2023-01-20T11:50:50.488Z,22.14
2023-01-20T11:53:36.725Z,21.79
2023-01-20T11:56:24.221Z,22.15
2023-01-20T11:58:58.057Z,21.81
2023-01-20T12:01:28.080Z,21.60
2023-01-20T12:04:33.224Z,21.88
2023-01-20T12:07:06.124Z,21.83
2023-01-20T12:09:38.924Z,22.34
2023-01-20T12:12:15.844Z,22.14
2023-01-20T12:15:12.760Z,22.27
2023-01-20T12:17:49.345Z,22.59
2023-01-20T12:20:53.586Z,22.10
2023-01-20T12:23:33.784Z,22.25
2023-01-20T12:26:03.502Z,22.28
2023-01-20T12:28:52.828Z,21.91
2023-01-20T12:31:24.217Z,21.83
2023-01-20T12:34:04.699Z,22.81
2023-01-20T12:36:57.127Z,22.29
2023-01-20T12:39:37.070Z,22.41
2023-01-20T12:42:10.731Z,22.32
2023-01-20T12:44:50.935Z,22.03
2023-01-20T12:47:41.805Z,22.70
2023-01-20T12:50:44.689Z,22.71
2023-01-20T12:53:39.893Z,22.32
2023-01-20T12:56:50.631Z,22.60
2023-01-20T12:59:21.097Z,22.45
2023-01-20T13:02:21.237Z,22.72
2023-01-20T13:05:03.865Z,22.61
2023-01-20T13:08:14.814Z,22.25
2023-01-20T13:11:08.532Z,22.64
2023-01-20T13:13:56.984Z,22.79
2023-01-20T13:16:45.955Z,22.66
2023-01-20T13:19:24.536Z,22.89
2023-01-20T13:22:06.945Z,22.53
2023-01-20T13:24:36.280Z,22.65
2023-01-20T13:27:04.311Z,22.52
2023-01-20T13:29:37.829Z,22.83
2023-01-20T13:32:33.120Z,22.46
2023-01-20T13:35:03.273Z,22.30
2023-01-20T13:37:39.151Z,22.80
2023-01-20T13:40:38.350Z,22.55
2023-01-20T13:43:26.639Z,22.53
2023-01-20T13:46:03.279Z,23.00
2023-01-20T13:48:32.937Z,22.78
2023-01-20T13:51:15.686Z,22.41
2023-01-20T13:53:44.100Z,22.54
2023-01-20T13:56:35.733Z,22.53
2023-01-20T13:59:03.204Z,22.66
2023-01-20T14:01:30.855Z,23.30
2023-01-20T14:04:16.940Z,23.40
2023-01-20T14:06:58.203Z,23.20
2023-01-20T14:09:26.855Z,22.72
2023-01-20T14:11:57.164Z,23.01
2023-01-20T14:14:27.143Z,22.79
2023-01-20T14:16:56.801Z,23.03
2023-01-20T14:19:32.846Z,23.50
2023-01-20T14:22:03.363Z,23.08
2023-01-20T14:24:36.520Z,23.62
2023-01-20T14:27:27.032Z,23.57
2023-01-20T14:29:57.168Z,23.34
2023-01-20T14:32:32.407Z,23.75
2023-01-20T14:35:01.051Z,23.20
2023-01-20T14:37:38.517Z,24.33
2023-01-20T14:40:27.294Z,23.83
2023-01-20T14:43:22.795Z,23.87
2023-01-20T14:45:52.320Z,23.99
2023-01-20T14:48:33.476Z,23.50
2023-01-20T14:51:04.501Z,24.24
2023-01-20T14:53:32.451Z,23.86
2023-01-20T14:56:07.888Z,24.01
2023-01-20T14:58:36.706Z,23.82
2023-01-20T15:01:06.906Z,24.51
2023-01-20T15:03:34.545Z,23.76
2023-01-20T15:06:06.363Z,24.26
2023-01-20T15:08:33.826Z,24.34
2023-01-20T15:11:22.767Z,23.76
2023-01-20T15:13:59.107Z,24.06
2023-01-20T15:16:30.911Z,24.15
2023-01-20T15:19:13.921Z,24.43
2023-01-20T15:22:30.741Z,24.63
2023-01-20T15:25:13.174Z,25.43
2023-01-20T15:27:40.686Z,24.58
2023-01-20T15:30:21.724Z,25.08
2023-01-20T15:32:50.404Z,25.58
2023-01-20T15:35:23.170Z,25.29
2023-01-20T15:37:50.813Z,25.25
2023-01-20T15:40:21.312Z,25.54
2023-01-20T15:42:51.026Z,25.73
2023-01-20T15:45:19.150Z,26.12
2023-01-20T15:47:47.303Z,25.84
2023-01-20T15:50:22.120Z,25.96
2023-01-20T15:52:49.951Z,25.81
2023-01-20T15:55:19.594Z,25.86
2023-01-20T15:57:51.573Z,25.89
2023-01-20T16:00:22.226Z,25.57
2023-01-20T16:02:50.466Z,25.94
2023-01-20T16:05:18.070Z,26.23
2023-01-20T16:07:47.978Z,26.32
2023-01-20T16:10:17.615Z,25.98
2023-01-20T16:12:46.576Z,26.26
2023-01-20T16:15:16.634Z,26.90
2023-01-20T16:17:45.793Z,26.50
2023-01-20T16:20:22.729Z,26.34
2023-01-20T16:22:50.621Z,27.00
2023-01-20T16:25:19.037Z,26.72
2023-01-20T16:27:46.566Z,26.87
2023-01-20T16:30:22.606Z,26.85
2023-01-20T16:32:50.676Z,26.77
2023-01-20T16:35:20.883Z,27.23
2023-01-20T16:37:48.604Z,27.11
2023-01-20T16:40:19.053Z,26.95
2023-01-20T16:42:47.864Z,27.07
2023-01-20T16:45:21.748Z,27.67
2023-01-20T16:47:49.483Z,27.52
2023-01-20T16:50:18.121Z,27.14
2023-01-20T16:52:46.283Z,27.76
2023-01-20T16:55:14.404Z,27.25
2023-01-20T16:57:42.622Z,27.59
2023-01-20T17:00:13.116Z,28.32
2023-01-20T17:02:40.764Z,27.63
2023-01-20T17:05:09.324Z,28.10
2023-01-20T17:07:36.947Z,27.68
2023-01-20T17:10:04.793Z,27.89
2023-01-20T17:12:32.394Z,28.08
2023-01-20T17:15:00.055Z,28.27
2023-01-20T17:17:27.587Z,28.31
2023-01-20T17:19:55.071Z,28.48
2023-01-20T17:22:22.626Z,28.35
2023-01-20T17:24:50.478Z,28.33
2023-01-20T17:27:18.009Z,28.83
2023-01-20T17:29:48.614Z,29.09
2023-01-20T17:32:16.570Z,29.28
2023-01-20T17:34:44.162Z,28.96
2023-01-20T17:37:11.753Z,29.50
2023-01-20T17:39:39.317Z,29.66
2023-01-20T17:42:06.905Z,29.59
2023-01-20T17:44:35.430Z,30.54
2023-01-20T17:47:03.327Z,30.02
2023-01-20T17:49:31.116Z,30.42
2023-01-20T17:51:58.619Z,30.00
2023-01-20T17:54:26.174Z,30.47
2023-01-20T17:56:53.725Z,30.97
2023-01-20T17:59:21.320Z,30.82
2023-01-20T18:01:52.639Z,30.64
2023-01-20T18:04:20.267Z,31.26
2023-01-20T18:06:47.840Z,31.48
2023-01-20T18:09:15.800Z,31.40
2023-01-20T18:11:43.924Z,32.34
2023-01-20T18:14:11.595Z,32.09
2023-01-20T18:16:41.852Z,32.01
2023-01-20T18:19:15.618Z,32.27
2023-01-20T18:21:44.407Z,32.14
2023-01-20T18:24:13.022Z,31.75
2023-01-20T18:26:43.104Z,32.26
2023-01-20T18:29:15.016Z,32.46
2023-01-20T18:31:43.829Z,32.53
2023-01-20T18:34:13.699Z,32.50
2023-01-20T18:36:45.359Z,32.84
2023-01-20T18:39:18.698Z,32.91
2023-01-20T18:41:46.915Z,32.52
2023-01-20T18:44:14.857Z,32.43
2023-01-20T18:46:42.740Z,32.68
2023-01-20T18:49:18.144Z,32.48
2023-01-20T18:51:45.760Z,32.39
2023-01-20T18:54:21.481Z,33.45
2023-01-20T18:56:49.139Z,33.07
2023-01-20T18:59:17.017Z,33.18
2023-01-20T19:01:44.825Z,34.21
2023-01-20T19:04:14.021Z,33.84
2023-01-20T19:06:43.868Z,33.97
2023-01-20T19:09:12.154Z,33.52
2023-01-20T19:11:41.332Z,33.60
2023-01-20T19:14:12.613Z,33.88
2023-01-20T19:16:45.583Z,34.40
2023-01-20T19:19:13.819Z,34.12
2023-01-20T19:21:41.820Z,34.65
2023-01-20T19:24:16.484Z,34.70
2023-01-20T19:26:44.151Z,33.88
2023-01-20T19:29:16.017Z,34.36
2023-01-20T19:31:44.073Z,34.31
2023-01-20T19:34:11.940Z,33.90
2023-01-20T19:36:39.509Z,33.78
2023-01-20T19:39:07.235Z,34.57
2023-01-20T19:41:36.363Z,34.66
2023-01-20T19:44:06.913Z,34.65
2023-01-20T19:46:37.252Z,35.12
2023-01-20T19:49:05.101Z,34.74
2023-01-20T19:51:32.645Z,34.84
2023-01-20T19:54:01.715Z,35.41
2023-01-20T19:56:32.547Z,35.19
2023-01-20T19:59:01.448Z,35.31
2023-01-20T20:01:32.050Z,35.17
2023-01-20T20:04:03.925Z,34.88
2023-01-20T20:06:33.950Z,34.91
2023-01-20T20:09:11.447Z,35.40
2023-01-20T20:11:39.707Z,34.84
2023-01-20T20:14:09.269Z,34.87
2023-01-20T20:16:38.190Z,34.33
2023-01-20T20:19:07.442Z,34.20
2023-01-20T20:21:35.249Z,34.19
2023-01-20T20:24:05.656Z,34.36
2023-01-20T20:26:36.349Z,33.67
2023-01-20T20:29:06.409Z,33.97
2023-01-20T20:31:35.887Z,35.06
2023-01-20T20:34:05.501Z,34.38
2023-01-20T20:36:33.840Z,34.54
2023-01-20T20:39:03.373Z,33.75
2023-01-20T20:41:32.075Z,33.85
2023-01-20T20:44:01.282Z,34.11
2023-01-20T20:46:30.052Z,33.45
2023-01-20T20:48:59.595Z,33.43
2023-01-20T20:51:34.986Z,33.49
2023-01-20T20:54:03.543Z,32.85
2023-01-20T20:56:32.446Z,33.42
2023-01-20T20:59:03.029Z,32.97
2023-01-20T21:01:33.877Z,33.33
2023-01-20T21:04:03.779Z,32.83
2023-01-20T21:06:32.045Z,33.38
2023-01-20T21:09:00.084Z,33.06
2023-01-20T21:11:28.272Z,32.97
2023-01-20T21:13:56.203Z,33.08
2023-01-20T21:16:24.652Z,32.41
2023-01-20T21:18:54.335Z,32.42
2023-01-20T21:21:22.625Z,31.84
2023-01-20T21:23:52.496Z,31.96
2023-01-20T21:26:21.120Z,32.09
2023-01-20T21:28:51.865Z,31.86
2023-01-20T21:31:21.776Z,31.62
2023-01-20T21:33:54.205Z,31.80
2023-01-20T21:36:22.809Z,31.92
2023-01-20T21:38:50.616Z,31.78
2023-01-20T21:41:18.842Z,32.20
2023-01-20T21:44:06.239Z,31.99
2023-01-20T21:46:40.120Z,31.46
2023-01-20T21:49:27.940Z,31.53
2023-01-20T21:52:14.788Z,31.05
2023-01-20T21:54:45.508Z,30.71
2023-01-20T21:57:14.127Z,30.96
2023-01-20T21:59:42.579Z,30.23
2023-01-20T22:02:13.481Z,31.06
2023-01-20T22:04:42.618Z,30.43
2023-01-20T22:07:10.692Z,30.18
2023-01-20T22:09:38.809Z,30.13
2023-01-20T22:12:06.970Z,30.30
2023-01-20T22:14:34.484Z,30.50
2023-01-20T22:17:02.567Z,29.98
2023-01-20T22:19:30.062Z,29.47
2023-01-20T22:21:58.239Z,29.79
2023-01-20T22:24:25.784Z,29.49
2023-01-20T22:26:53.597Z,29.25
2023-01-20T22:29:22.530Z,29.82
2023-01-20T22:31:54.393Z,29.32
2023-01-20T22:34:22.608Z,29.33
2023-01-20T22:36:50.068Z,28.46
2023-01-20T22:39:17.800Z,28.15
2023-01-20T22:41:45.388Z,28.36
2023-01-20T22:44:13.001Z,28.02
2023-01-20T22:46:40.715Z,28.10
2023-01-20T22:49:08.151Z,27.29
2023-01-20T22:51:35.687Z,26.92
2023-01-20T22:54:03.572Z,26.74
2023-01-20T22:56:32.864Z,27.28
2023-01-20T22:59:01.075Z,27.06
2023-01-20T23:01:36.080Z,27.27
2023-01-20T23:04:06.630Z,26.83
2023-01-20T23:06:36.403Z,27.33
2023-01-20T23:09:09.667Z,27.30
2023-01-20T23:11:38.530Z,27.21
2023-01-20T23:14:06.978Z,27.31
2023-01-20T23:16:34.610Z,27.63
2023-01-20T23:19:02.301Z,27.01
2023-01-20T23:21:30.276Z,27.47
2023-01-20T23:23:57.915Z,27.38
2023-01-20T23:26:30.713Z,27.83
2023-01-20T23:28:58.816Z,27.37
2023-01-20T23:31:28.749Z,27.88
2023-01-20T23:33:56.323Z,27.46
2023-01-20T23:36:26.048Z,27.84
2023-01-20T23:38:55.345Z,28.44
2023-01-20T23:41:23.850Z,27.98
2023-01-20T23:43:51.545Z,27.43
2023-01-20T23:46:19.129Z,27.76
2023-01-20T23:48:48.985Z,27.63
2023-01-20T23:51:16.937Z,27.85
2023-01-20T23:53:44.906Z,27.72
2023-01-20T23:56:15.874Z,27.49
2023-01-20T23:58:43.917Z,27.46
